Time;durP1;ratioP1;P1;durP2;ratioP2;P2;SDS_P1;SDS_P2;PMS_P1;PMS_P2;Temp;Humidity;BMP_temperature;BMP_pressure;BME280_temperature;BME280_humidity;BME280_pressure;Samples;Min_cycle;Max_cycle;Signal;HPM_P1;HPM_P2
2022/04/20 00:01:18;;;;;;;6.97;3.40;;;;;;;7.91;100.00;93795.34;4982648;28;20073;-90
2022/04/20 00:03:44;;;;;;;4.80;2.80;;;;;;;8.02;100.00;93796.84;4982401;28;20022;-90
2022/04/20 00:06:10;;;;;;;5.90;3.05;;;;;;;8.10;100.00;93808.56;4994724;28;20026;-91
2022/04/20 00:08:35;;;;;;;6.45;2.90;;;;;;;8.14;100.00;93798.41;4982315;28;20424;-90
2022/04/20 00:11:01;;;;;;;7.47;3.03;;;;;;;8.14;100.00;93798.41;4982491;28;20121;-90
2022/04/20 00:13:27;;;;;;;6.55;2.83;;;;;;;8.13;100.00;93802.06;4982217;28;20113;-89
2022/04/20 00:15:52;;;;;;;5.63;2.88;;;;;;;8.05;100.00;93804.19;4966522;28;20459;-90
2022/04/20 00:18:18;;;;;;;6.10;2.58;;;;;;;8.12;100.00;93790.84;4998124;28;20026;-89
2022/04/20 00:20:43;;;;;;;4.85;2.60;;;;;;;8.19;100.00;93801.00;4982634;28;20332;-90
2022/04/20 00:23:09;;;;;;;8.98;2.90;;;;;;;8.23;100.00;93802.03;4982018;28;20030;-91
2022/04/20 00:25:34;;;;;;;6.68;2.45;;;;;;;8.24;100.00;93803.59;4981800;28;20492;-89
2022/04/20 00:28:00;;;;;;;5.20;2.92;;;;;;;8.26;100.00;93803.34;4966237;28;20026;-89
2022/04/20 00:30:25;;;;;;;5.82;2.53;;;;;;;8.35;100.00;93805.13;4966115;28;20026;-90
2022/04/20 00:32:50;;;;;;;4.22;2.70;;;;;;;8.55;100.00;93803.50;4966098;28;20168;-89
2022/04/20 00:35:16;;;;;;;6.97;2.70;;;;;;;8.74;100.00;93806.31;4982268;28;20450;-90
2022/04/20 00:37:42;;;;;;;4.65;2.50;;;;;;;8.92;100.00;93806.72;4997670;28;20121;-89
2022/04/20 00:40:08;;;;;;;6.30;2.50;;;;;;;9.00;100.00;93806.16;4997938;28;20030;-90
2022/04/20 00:42:36;;;;;;;7.10;3.10;;;;;;;9.09;100.00;93800.34;4998796;28;20317;-90
2022/04/20 00:45:02;;;;;;;4.80;2.35;;;;;;;9.19;100.00;93811.53;4981890;28;20019;-90
2022/04/20 00:47:28;;;;;;;4.65;2.40;;;;;;;9.09;100.00;93810.81;4965284;28;20132;-89
2022/04/20 00:49:53;;;;;;;11.10;2.80;;;;;;;8.62;100.00;93816.28;4981601;28;20027;-90
2022/04/20 00:52:19;;;;;;;8.00;2.53;;;;;;;8.66;100.00;93819.16;4981760;28;20033;-89
2022/04/20 00:54:44;;;;;;;7.88;3.15;;;;;;;8.33;100.00;93816.88;4990468;28;20026;-91
2022/04/20 00:57:12;;;;;;;7.13;3.15;;;;;;;8.07;100.00;93825.56;4998473;28;20026;-90
2022/04/20 00:59:38;;;;;;;11.55;3.40;;;;;;;7.91;100.00;93819.59;4981350;28;20026;-89
2022/04/20 01:02:04;;;;;;;6.88;2.60;;;;;;;7.84;100.00;93823.50;4989756;28;20455;-90
2022/04/20 01:04:30;;;;;;;8.32;2.65;;;;;;;7.88;100.00;93825.31;4979793;28;20122;-90
2022/04/20 01:07:00;;;;;;;6.28;2.95;;;;;;;8.07;100.00;93829.97;4981104;28;20452;-89
2022/04/20 01:09:25;;;;;;;4.90;2.80;;;;;;;8.22;100.00;93823.97;4997484;28;20022;-90
2022/04/20 01:11:52;;;;;;;5.20;2.60;;;;;;;8.29;100.00;93821.84;4990874;28;20120;-89
2022/04/20 01:14:17;;;;;;;7.05;3.00;;;;;;;8.21;100.00;93836.22;4981161;28;20022;-89
2022/04/20 01:16:43;;;;;;;7.57;2.90;;;;;;;8.42;100.00;93832.78;4997187;28;20039;-89
2022/04/20 01:19:08;;;;;;;6.13;2.60;;;;;;;8.36;100.00;93832.00;4998419;28;20451;-89
2022/04/20 01:21:34;;;;;;;5.55;2.83;;;;;;;8.56;100.00;93831.19;4996928;28;20030;-90
2022/04/20 01:23:59;;;;;;;4.93;3.17;;;;;;;8.41;100.00;93828.59;4991812;28;20018;-89
2022/04/20 01:26:25;;;;;;;7.32;2.95;;;;;;;8.56;100.00;93825.19;4980954;28;20096;-89
2022/04/20 01:28:51;;;;;;;5.68;2.72;;;;;;;8.73;100.00;93830.06;4981060;28;20026;-89
2022/04/20 01:31:17;;;;;;;4.45;2.60;;;;;;;8.94;100.00;93840.44;4997590;28;20033;-90
2022/04/20 01:33:44;;;;;;;5.13;2.70;;;;;;;8.83;100.00;93837.88;4983571;28;20490;-90
2022/04/20 01:36:10;;;;;;;5.95;2.80;;;;;;;8.68;100.00;93843.16;4986359;28;20026;-90
2022/04/20 01:38:36;;;;;;;7.18;3.10;;;;;;;8.79;100.00;93843.88;4969896;28;20618;-89
2022/04/20 01:41:02;;;;;;;5.10;2.58;;;;;;;8.79;100.00;93846.50;4971482;28;20045;-90
2022/04/20 01:43:27;;;;;;;8.00;3.58;;;;;;;8.93;100.00;93850.09;4961196;28;20022;-90
2022/04/20 01:45:53;;;;;;;7.05;3.63;;;;;;;8.83;100.00;93844.94;4996649;28;20101;-90
2022/04/20 01:48:18;;;;;;;4.47;3.00;;;;;;;8.57;100.00;93851.03;4996768;28;20026;-91
2022/04/20 01:53:27;;;;;;;7.18;3.30;;;;;;;8.85;100.00;93850.66;4997810;28;20092;-90
2022/04/20 01:55:53;;;;;;;6.32;3.42;;;;;;;8.58;100.00;93857.81;4979985;28;20387;-90
2022/04/20 01:58:18;;;;;;;7.05;3.00;;;;;;;8.56;100.00;93852.06;4997304;28;20084;-90
2022/04/20 02:00:44;;;;;;;7.32;3.50;;;;;;;8.75;100.00;93854.88;4995316;28;20136;-90
2022/04/20 02:03:10;;;;;;;6.72;3.20;;;;;;;8.76;100.00;93856.44;4976869;28;20034;-90
2022/04/20 02:05:35;;;;;;;6.95;3.30;;;;;;;8.49;100.00;93856.78;4980171;28;20339;-89
2022/04/20 02:08:01;;;;;;;4.88;3.15;;;;;;;8.31;100.00;93858.91;4980051;28;20030;-90
2022/04/20 02:10:26;;;;;;;5.25;3.25;;;;;;;8.54;100.00;93862.00;4979973;28;20424;-90
2022/04/20 02:12:52;;;;;;;7.75;3.47;;;;;;;8.62;100.00;93869.31;4980147;28;20030;-90
2022/04/20 02:15:17;;;;;;;6.60;2.95;;;;;;;8.80;100.00;93861.91;4977686;28;20356;-90
2022/04/20 02:17:43;;;;;;;7.68;3.15;;;;;;;8.52;100.00;93866.72;4979321;28;20396;-89
2022/04/20 02:20:09;;;;;;;6.55;3.30;;;;;;;8.32;100.00;93868.31;4976478;28;20054;-91
2022/04/20 02:22:34;;;;;;;6.00;3.65;;;;;;;8.52;100.00;93871.94;4980148;28;20031;-90
2022/04/20 02:25:00;;;;;;;8.55;3.97;;;;;;;8.31;100.00;93868.56;4980036;28;20029;-90
2022/04/20 02:27:26;;;;;;;8.57;3.70;;;;;;;7.93;100.00;93867.03;4979832;28;20042;-91
2022/04/20 02:29:52;;;;;;;5.75;3.40;;;;;;;7.97;100.00;93863.94;4963522;28;20030;-90
2022/04/20 02:32:17;;;;;;;7.90;3.25;;;;;;;7.86;100.00;93868.34;4980036;28;20053;-90
2022/04/20 02:34:43;;;;;;;8.45;4.00;;;;;;;7.85;100.00;93877.22;4972666;28;20027;-91
2022/04/20 02:37:10;;;;;;;6.97;3.65;;;;;;;7.70;100.00;93873.56;4979828;28;20042;-90
2022/04/20 02:39:36;;;;;;;5.72;3.33;;;;;;;7.93;100.00;93867.03;4979900;28;20057;-90
2022/04/20 02:42:02;;;;;;;9.40;3.67;;;;;;;8.14;100.00;93871.47;4979874;28;20037;-90
2022/04/20 02:44:27;;;;;;;6.35;3.50;;;;;;;8.23;100.00;93869.88;4979667;28;20046;-89
2022/04/20 02:46:53;;;;;;;7.78;3.90;;;;;;;8.17;100.00;93870.94;4973840;28;20061;-90
2022/04/20 02:49:21;;;;;;;7.35;3.92;;;;;;;7.80;100.00;93872.03;4980099;28;20026;-90
2022/04/20 02:51:46;;;;;;;10.95;4.53;;;;;;;8.15;100.00;93873.81;4997249;28;20065;-90
2022/04/20 02:54:12;;;;;;;9.45;5.50;;;;;;;8.12;100.00;93873.56;4979747;28;20069;-89
2022/04/20 02:56:37;;;;;;;12.60;6.13;;;;;;;8.12;100.00;93876.16;4979773;28;20432;-89
2022/04/20 02:59:03;;;;;;;13.10;6.50;;;;;;;8.25;100.00;93878.22;4964159;28;20331;-90
2022/04/20 03:01:30;;;;;;;10.63;5.60;;;;;;;8.07;100.00;93882.97;4979645;28;20034;-90
2022/04/20 03:03:57;;;;;;;13.75;6.75;;;;;;;7.78;100.00;93878.28;4974175;28;20121;-89
2022/04/20 03:06:22;;;;;;;11.82;5.00;;;;;;;7.89;100.00;93875.66;4963776;28;20026;-89
2022/04/20 03:08:48;;;;;;;11.77;6.43;;;;;;;7.71;100.00;93882.97;4960850;28;20117;-91
2022/04/20 03:11:13;;;;;;;9.63;5.55;;;;;;;7.54;100.00;93880.63;4944683;28;20031;-89
2022/04/20 03:13:42;;;;;;;13.45;6.07;;;;;;;7.59;100.00;93880.63;4985348;28;20030;-89
2022/04/20 03:16:07;;;;;;;9.85;6.38;;;;;;;7.28;100.00;93883.19;4996921;28;20031;-91
2022/04/20 03:18:33;;;;;;;14.45;6.70;;;;;;;7.00;100.00;93882.59;4995561;28;20455;-90
2022/04/20 03:21:04;;;;;;;13.27;6.82;;;;;;;7.06;100.00;93873.75;4979677;28;20026;-90
2022/04/20 03:23:30;;;;;;;11.23;6.45;;;;;;;7.22;100.00;93874.59;4979311;28;20432;-89
2022/04/20 03:25:56;;;;;;;9.98;6.20;;;;;;;7.17;100.00;93885.00;4979517;28;20037;-89
2022/04/20 03:28:21;;;;;;;9.30;5.13;;;;;;;7.04;100.00;93877.66;4965203;28;20037;-90
2022/04/20 03:30:47;;;;;;;9.05;5.28;;;;;;;7.01;100.00;93875.56;4998994;28;20325;-89
2022/04/20 03:33:13;;;;;;;9.13;5.90;;;;;;;6.93;100.00;93882.84;4983027;28;20069;-91
2022/04/20 03:35:39;;;;;;;9.48;5.32;;;;;;;6.96;100.00;93886.75;4982401;28;20033;-89
2022/04/20 03:38:07;;;;;;;10.02;5.03;;;;;;;6.99;100.00;93881.03;4982880;28;20034;-91
2022/04/20 03:40:33;;;;;;;8.85;5.47;;;;;;;6.93;100.00;93892.47;4983005;28;20058;-90
2022/04/20 03:42:59;;;;;;;15.82;8.18;;;;;;;6.94;100.00;93894.03;4982534;28;20076;-90
2022/04/20 03:45:24;;;;;;;22.25;11.80;;;;;;;6.83;100.00;93893.22;4982500;28;20436;-89
2022/04/20 03:47:52;;;;;;;29.40;16.13;;;;;;;6.94;100.00;93888.81;4983126;28;20030;-92
2022/04/20 03:50:18;;;;;;;28.90;13.95;;;;;;;6.86;100.00;93887.50;4982714;28;20077;-90
2022/04/20 03:52:43;;;;;;;20.13;11.57;;;;;;;6.56;100.00;93893.38;4982679;28;20034;-90
2022/04/20 03:55:09;;;;;;;15.82;8.70;;;;;;;6.32;100.00;93897.16;4966652;28;20031;-90
2022/04/20 03:57:35;;;;;;;16.67;7.72;;;;;;;6.19;100.00;93903.56;4966554;28;20117;-90
2022/04/20 04:00:01;;;;;;;16.98;8.30;;;;;;;6.14;100.00;93902.75;4982317;28;20041;-91
2022/04/20 04:02:26;;;;;;;24.13;10.63;;;;;;;6.15;100.00;93906.91;4982514;28;20031;-90
2022/04/20 04:04:51;;;;;;;29.67;14.43;;;;;;;6.20;100.00;93901.75;4966057;28;20029;-90
2022/04/20 04:07:17;;;;;;;31.17;13.88;;;;;;;6.13;100.00;93898.59;4990679;28;20036;-90
2022/04/20 04:09:42;;;;;;;30.98;15.52;;;;;;;6.23;100.00;93904.63;5001498;28;20087;-90
2022/04/20 04:12:10;;;;;;;29.40;15.35;;;;;;;5.97;100.00;93906.25;5001643;28;20382;-89
2022/04/20 04:14:40;;;;;;;34.22;15.38;;;;;;;5.96;100.00;93904.69;5001642;28;20026;-89
2022/04/20 04:17:06;;;;;;;23.45;11.60;;;;;;;6.16;100.00;93913.69;5018285;28;20088;-91
2022/04/20 04:19:39;;;;;;;24.70;12.13;;;;;;;6.13;100.00;93911.59;4985453;28;20025;-89
2022/04/20 04:22:05;;;;;;;27.80;11.65;;;;;;;5.96;100.00;93917.69;4986525;28;20394;-91
2022/04/20 04:24:37;;;;;;;21.63;11.52;;;;;;;5.79;100.00;93912.59;5001225;28;20026;-91
2022/04/20 04:27:13;;;;;;;;;;;;;;;;;;;;;
2022/04/20 04:29:39;;;;;;;25.73;12.30;;;;;;;5.73;100.00;93919.56;5018682;28;20338;-90
2022/04/20 04:32:05;;;;;;;26.08;13.77;;;;;;;5.39;100.00;93925.00;4985280;28;20029;-90
2022/04/20 04:34:33;;;;;;;25.17;13.52;;;;;;;5.40;100.00;93920.59;5016561;28;20033;-90
2022/04/20 04:37:09;;;;;;;;;;;;;;;;;;;;;
2022/04/20 04:39:34;;;;;;;28.77;15.30;;;;;;;5.41;100.00;93938.53;5001688;28;20454;-90
2022/04/20 04:42:00;;;;;;;30.17;14.38;;;;;;;5.67;100.00;93941.38;5001056;28;20108;-90
2022/04/20 04:44:32;;;;;;;30.10;15.30;;;;;;;5.78;100.00;93956.03;4984858;28;20080;-91
2022/04/20 04:49:42;;;;;;;33.83;16.35;;;;;;;5.59;100.00;93960.78;5001772;28;20482;-90
2022/04/20 04:52:11;;;;;;;29.67;14.90;;;;;;;5.76;100.00;93965.09;4976178;28;20121;-91
2022/04/20 04:54:39;;;;;;;38.50;16.45;;;;;;;5.77;100.00;93964.88;4946574;28;20441;-90
2022/04/20 04:57:07;;;;;;;31.50;15.70;;;;;;;5.89;100.00;93961.31;4975661;28;20053;-90
2022/04/20 04:59:33;;;;;;;27.58;14.77;;;;;;;5.94;100.00;93951.72;4981859;28;20030;-91
2022/04/20 05:01:59;;;;;;;30.42;15.18;;;;;;;6.06;100.00;93961.22;4997332;28;20026;-90
2022/04/20 05:04:26;;;;;;;25.70;15.05;;;;;;;6.21;100.00;93960.56;4965036;28;20104;-90
2022/04/20 05:06:54;;;;;;;34.63;14.85;;;;;;;6.68;100.00;93963.44;4975039;28;20034;-91
2022/04/20 05:09:19;;;;;;;30.10;14.98;;;;;;;6.88;100.00;93962.78;4969279;28;20022;-90
2022/04/20 05:11:47;;;;;;;26.48;13.70;;;;;;;7.13;100.00;93975.13;4981355;28;20431;-90
2022/04/20 05:14:13;;;;;;;26.77;13.75;;;;;;;7.42;100.00;93972.09;4961514;28;20027;-93
2022/04/20 05:16:39;;;;;;;25.73;13.60;;;;;;;7.64;100.00;93979.69;4961533;28;20030;-90
2022/04/20 05:19:04;;;;;;;31.58;13.95;;;;;;;7.53;100.00;93977.34;4957616;28;20033;-90
2022/04/20 05:21:30;;;;;;;30.08;14.45;;;;;;;7.24;100.00;93991.56;4961661;28;20345;-90
2022/04/20 05:23:58;;;;;;;31.00;15.77;;;;;;;6.84;100.00;93990.38;4961557;28;20097;-92
2022/04/20 05:26:25;;;;;;;29.55;14.60;;;;;;;7.00;100.00;93989.41;4961386;28;20027;-91
2022/04/20 05:28:50;;;;;;;28.58;14.93;;;;;;;7.17;100.00;93996.25;4955287;28;20129;-90
2022/04/20 05:31:16;;;;;;;28.77;16.27;;;;;;;6.99;100.00;93993.03;4945550;28;20030;-90
2022/04/20 05:33:41;;;;;;;26.10;14.50;;;;;;;7.41;100.00;93990.59;4945442;28;20030;-90
2022/04/20 05:36:06;;;;;;;27.27;14.00;;;;;;;7.79;100.00;93996.41;4978534;28;20039;-90
2022/04/20 05:44:00;;;;;;;26.48;13.48;;;;;;;8.29;100.00;94001.94;4977320;28;20447;-90
2022/04/20 05:46:25;;;;;;;31.08;16.70;;;;;;;7.92;100.00;94002.97;4960878;28;20113;-90
2022/04/20 05:48:51;;;;;;;31.08;16.60;;;;;;;8.13;100.00;94000.38;4961070;28;20034;-90
2022/04/20 05:51:17;;;;;;;28.58;16.38;;;;;;;8.33;100.00;93996.97;4978062;28;20495;-89
2022/04/20 05:53:42;;;;;;;31.98;17.42;;;;;;;7.57;100.00;94005.25;4960911;28;20137;-91
2022/04/20 05:56:08;;;;;;;31.45;16.77;;;;;;;7.72;100.00;94006.31;4977119;28;20074;-90
2022/04/20 05:58:33;;;;;;;29.40;17.30;;;;;;;7.80;100.00;94007.63;4960971;28;20037;-90
2022/04/20 06:00:58;;;;;;;33.28;15.77;;;;;;;7.98;100.00;94001.16;4960810;28;20039;-90
2022/04/20 06:03:24;;;;;;;27.52;15.73;;;;;;;8.21;100.00;93998.03;4961013;28;20034;-91
2022/04/20 06:05:49;;;;;;;28.52;15.40;;;;;;;8.54;100.00;93999.63;4960905;28;20031;-91
2022/04/20 06:08:15;;;;;;;30.17;15.30;;;;;;;8.59;100.00;93997.75;4976797;28;20038;-90
2022/04/20 06:10:40;;;;;;;28.77;16.48;;;;;;;8.39;100.00;93995.16;4976767;28;20035;-90
2022/04/20 06:13:06;;;;;;;28.65;15.43;;;;;;;9.12;100.00;93993.22;4976759;28;20088;-90
2022/04/20 06:15:32;;;;;;;27.40;14.73;;;;;;;9.26;100.00;93999.44;4944951;28;20382;-90
2022/04/20 06:17:58;;;;;;;32.70;15.70;;;;;;;9.01;100.00;93993.25;4976655;28;20045;-93
2022/04/20 06:20:23;;;;;;;27.98;16.13;;;;;;;9.48;100.00;93996.47;4960826;28;20356;-91
2022/04/20 06:22:48;;;;;;;31.15;15.88;;;;;;;9.49;100.00;93997.25;4945051;28;20107;-91
2022/04/20 06:25:24;;;;;;;29.45;15.65;;;;;;;9.68;100.00;94002.66;4944790;28;20026;-90
2022/04/20 06:27:50;;;;;;;25.50;14.80;;;;;;;9.52;100.00;94003.78;4976772;28;20100;-91
2022/04/20 06:30:16;;;;;;;31.77;14.40;;;;;;;9.36;100.00;94009.09;4960703;28;20058;-91
2022/04/20 06:32:41;;;;;;;22.20;11.65;;;;;;;9.70;100.00;94005.78;4960383;28;20137;-92
2022/04/20 06:35:07;;;;;;;16.30;10.73;;;;;;;9.70;100.00;94008.38;4960691;28;20106;-89
2022/04/20 06:37:33;;;;;;;19.63;12.27;;;;;;;10.08;100.00;94009.75;4977019;28;20121;-91
2022/04/20 06:39:58;;;;;;;26.38;13.45;;;;;;;10.07;100.00;94013.41;4944627;28;20026;-90
2022/04/20 06:42:23;;;;;;;25.75;13.05;;;;;;;10.24;100.00;94011.19;4960553;28;20030;-91
2022/04/20 06:44:49;;;;;;;24.00;13.52;;;;;;;10.12;100.00;94018.59;4960607;28;20022;-91
2022/04/20 06:47:14;;;;;;;26.60;14.32;;;;;;;10.11;100.00;94022.28;4944463;28;20027;-91
2022/04/20 06:49:41;;;;;;;24.48;14.05;;;;;;;10.35;100.00;94021.59;4976735;28;20417;-91
2022/04/20 07:00:19;;;;;;;24.23;12.55;;;;;;;10.26;100.00;94011.69;4976521;28;20041;-91
2022/04/20 07:02:45;;;;;;;28.25;13.60;;;;;;;10.04;100.00;94012.91;4978313;28;20034;-90
2022/04/20 07:05:11;;;;;;;28.15;14.25;;;;;;;9.99;100.00;94006.94;4964179;28;20030;-92
2022/04/20 07:07:37;;;;;;;28.50;14.10;;;;;;;10.50;100.00;94005.00;4963864;28;20568;-91
2022/04/20 07:10:03;;;;;;;25.08;13.25;;;;;;;10.29;100.00;94010.38;4975575;28;20053;-92
2022/04/20 07:12:29;;;;;;;25.85;13.63;;;;;;;10.34;100.00;94002.47;4947124;28;20035;-91
2022/04/20 07:14:54;;;;;;;23.38;15.07;;;;;;;10.55;100.00;94000.50;4963751;28;20325;-91
2022/04/20 07:17:20;;;;;;;25.45;13.30;;;;;;;10.55;100.00;94003.13;4963755;28;20038;-92
2022/04/20 07:19:45;;;;;;;24.52;12.93;;;;;;;10.64;100.00;94007.78;4963940;28;20353;-91
2022/04/20 07:22:11;;;;;;;22.75;12.60;;;;;;;10.78;100.00;94013.13;4947957;28;20125;-92
2022/04/20 07:24:41;;;;;;;22.10;11.57;;;;;;;10.91;100.00;94002.00;4963784;28;20436;-90
2022/04/20 07:27:07;;;;;;;19.08;10.93;;;;;;;10.96;100.00;94003.78;4964079;28;20038;-90
2022/04/20 07:29:32;;;;;;;22.75;11.73;;;;;;;10.89;100.00;94004.13;4963562;28;20031;-92
2022/04/20 07:31:58;;;;;;;20.80;11.02;;;;;;;11.27;100.00;94006.09;4963548;28;20026;-92
2022/04/20 07:34:23;;;;;;;22.98;11.00;;;;;;;10.97;100.00;94006.13;4963708;28;20429;-91
2022/04/20 07:36:49;;;;;;;21.25;11.30;;;;;;;10.88;100.00;94005.19;4963706;28;20035;-91
2022/04/20 07:39:15;;;;;;;19.05;10.60;;;;;;;10.98;100.00;94001.69;4963732;28;20034;-91
2022/04/20 07:41:40;;;;;;;20.65;9.73;;;;;;;11.12;100.00;94012.28;4979485;28;20058;-90
2022/04/20 07:44:06;;;;;;;17.90;8.90;;;;;;;11.67;100.00;94014.53;4963359;28;20031;-90
2022/04/20 07:46:31;;;;;;;18.15;10.02;;;;;;;11.98;100.00;94008.84;4963515;28;20065;-90
2022/04/20 07:48:57;;;;;;;16.55;8.95;;;;;;;12.34;100.00;94014.66;4963392;28;20026;-91
2022/04/20 07:51:22;;;;;;;19.63;9.45;;;;;;;12.14;100.00;94017.34;4963388;28;20134;-92
2022/04/20 07:53:48;;;;;;;16.45;8.52;;;;;;;12.78;100.00;94015.28;4979116;28;20035;-91
2022/04/20 07:56:13;;;;;;;16.80;8.55;;;;;;;12.63;100.00;94011.06;4947005;28;20035;-91
2022/04/20 07:58:39;;;;;;;19.60;8.23;;;;;;;12.00;100.00;94017.22;4947627;28;20037;-90
2022/04/20 08:01:04;;;;;;;20.85;9.63;;;;;;;12.34;100.00;94012.81;4947521;28;20027;-91
2022/04/20 08:03:30;;;;;;;18.48;9.25;;;;;;;12.33;100.00;94023.59;4979060;28;20038;-91
2022/04/20 08:05:56;;;;;;;25.98;11.18;;;;;;;12.07;100.00;94016.13;4947625;28;20038;-90
2022/04/20 08:08:23;;;;;;;18.00;9.38;;;;;;;12.09;100.00;94021.88;4962910;28;20038;-91
2022/04/20 08:10:49;;;;;;;17.13;9.63;;;;;;;12.19;100.00;94026.97;4979001;28;20033;-90
2022/04/20 08:15:58;;;;;;;15.82;8.10;;;;;;;12.59;100.00;94016.88;4979027;28;20045;-92
2022/04/20 08:18:25;;;;;;;13.25;7.60;;;;;;;13.45;100.00;94018.56;4962878;28;20039;-92
2022/04/20 08:20:50;;;;;;;14.70;7.10;;;;;;;13.33;100.00;94025.06;4946889;28;20038;-90
2022/04/20 08:23:16;;;;;;;14.75;6.95;;;;;;;13.81;100.00;94021.25;4978748;28;20046;-90
2022/04/20 08:25:42;;;;;;;14.00;6.88;;;;;;;13.33;100.00;94022.44;4947070;28;20027;-92
2022/04/20 08:28:11;;;;;;;13.85;7.38;;;;;;;13.46;100.00;94017.50;4946787;28;20121;-92
2022/04/20 08:30:39;;;;;;;13.40;6.72;;;;;;;13.78;100.00;94023.72;4978791;28;20034;-91
2022/04/20 08:33:08;;;;;;;17.48;7.25;;;;;;;14.59;100.00;94030.09;4946945;28;20097;-91
2022/04/20 08:35:37;;;;;;;11.07;6.18;;;;;;;14.84;100.00;94033.97;4961990;28;20031;-93
2022/04/20 08:38:04;;;;;;;10.85;6.30;;;;;;;15.02;100.00;94031.41;4973926;28;20056;-92
2022/04/20 08:40:30;;;;;;;14.32;7.07;;;;;;;14.70;100.00;94027.97;4962416;28;20340;-91
2022/04/20 08:43:01;;;;;;;16.83;7.03;;;;;;;14.56;100.00;94028.81;4978383;28;20031;-92
2022/04/20 08:45:29;;;;;;;14.45;6.57;;;;;;;15.51;100.00;94039.38;4978495;28;20027;-91
2022/04/20 08:47:57;;;;;;;13.48;6.93;;;;;;;15.56;100.00;94035.81;4962431;28;20113;-90
2022/04/20 08:50:24;;;;;;;22.60;6.72;;;;;;;14.40;100.00;94031.03;4946771;28;20026;-92
2022/04/20 08:52:51;;;;;;;13.65;7.00;;;;;;;14.32;100.00;94029.13;4946441;28;20030;-92
2022/04/20 08:55:18;;;;;;;12.48;6.80;;;;;;;15.50;100.00;94037.81;4962372;28;20038;-91
2022/04/20 08:57:46;;;;;;;15.70;7.38;;;;;;;15.55;97.31;94040.31;4962491;28;20133;-91
2022/04/20 09:00:21;;;;;;;14.98;7.45;;;;;;;15.18;96.44;94044.22;4962159;28;20038;-90
2022/04/20 09:02:50;;;;;;;19.52;7.05;;;;;;;15.66;91.24;94032.91;4978454;28;20034;-91
2022/04/20 09:05:15;;;;;;;13.43;6.43;;;;;;;15.16;100.00;94035.81;4975195;28;20031;-92
2022/04/20 09:07:43;;;;;;;15.07;6.80;;;;;;;15.12;100.00;94044.34;4962319;28;20066;-92
2022/04/20 09:10:08;;;;;;;17.27;7.22;;;;;;;15.55;98.41;94044.81;4961814;28;20125;-91
2022/04/20 09:12:39;;;;;;;16.70;7.18;;;;;;;15.91;96.57;94040.44;4961817;28;20062;-92
2022/04/20 09:15:05;;;;;;;17.20;8.05;;;;;;;15.20;99.16;94040.19;4946204;28;20391;-93
2022/04/20 09:17:40;;;;;;;21.05;9.30;;;;;;;15.53;100.00;94033.81;4961709;28;20053;-91
2022/04/20 09:20:06;;;;;;;20.90;9.25;;;;;;;15.74;100.00;94041.94;4957563;28;20031;-92
2022/04/20 09:22:32;;;;;;;21.73;10.27;;;;;;;15.00;100.00;94035.47;4977617;28;20031;-93
2022/04/20 09:25:07;;;;;;;21.45;10.35;;;;;;;14.48;100.00;94034.78;4961750;28;20089;-92
2022/04/20 09:27:41;;;;;;;25.10;10.30;;;;;;;14.77;100.00;94027.56;4977529;28;20035;-90
2022/04/20 09:30:12;;;;;;;19.83;10.35;;;;;;;14.50;100.00;94032.66;4946197;28;20057;-93
2022/04/20 09:32:44;;;;;;;23.00;10.63;;;;;;;14.47;100.00;94027.97;4961658;28;20034;-92
2022/04/20 09:35:20;;;;;;;22.02;9.68;;;;;;;15.04;100.00;94026.63;4961826;28;20031;-92
2022/04/20 09:38:03;;;;;;;18.80;9.73;;;;;;;15.61;100.00;94026.97;4961563;28;20148;-91
2022/04/20 09:40:35;;;;;;;28.10;10.55;;;;;;;15.08;100.00;94022.31;4976221;28;20038;-92
2022/04/20 09:43:04;;;;;;;26.05;10.45;;;;;;;14.33;100.00;94030.69;4977561;28;20027;-91
2022/04/20 09:45:30;;;;;;;18.30;8.68;;;;;;;13.78;100.00;94026.34;4945140;28;20023;-91
2022/04/20 09:50:44;;;;;;;23.23;10.90;;;;;;;14.03;100.00;94029.50;4963796;28;20041;-90
2022/04/20 09:53:12;;;;;;;28.55;10.90;;;;;;;14.02;100.00;94022.66;4945190;28;20034;-91
2022/04/20 09:55:39;;;;;;;28.15;11.23;;;;;;;13.65;100.00;94030.53;4961339;28;20030;-91
2022/04/20 09:58:10;;;;;;;21.23;11.10;;;;;;;13.49;100.00;94032.72;4960966;28;20038;-91
2022/04/20 10:00:45;;;;;;;27.02;11.90;;;;;;;13.59;100.00;94032.50;4961321;28;20035;-92
2022/04/20 10:03:11;;;;;;;29.55;13.05;;;;;;;13.18;100.00;94030.63;4945179;28;20428;-92
2022/04/20 10:05:37;;;;;;;34.58;12.32;;;;;;;12.93;100.00;94030.78;4977207;28;20027;-92
2022/04/20 10:08:04;;;;;;;24.33;12.90;;;;;;;13.11;100.00;94031.00;4972747;28;20380;-92
2022/04/20 10:10:31;;;;;;;31.83;12.43;;;;;;;13.54;100.00;94043.91;4944284;28;20089;-91
2022/04/20 10:12:57;;;;;;;21.98;10.90;;;;;;;14.14;100.00;94044.00;4961038;28;20034;-89
2022/04/20 10:18:16;;;;;;;21.30;10.48;;;;;;;14.16;100.00;94039.22;4963565;28;20356;-88
2022/04/20 10:20:46;;;;;;;20.40;10.60;;;;;;;14.30;100.00;94035.75;4977222;28;20101;-90
2022/04/20 10:23:19;;;;;;;20.83;10.40;;;;;;;15.27;100.00;94037.88;4957358;28;20125;-89
2022/04/20 10:25:46;;;;;;;27.63;11.05;;;;;;;14.02;100.00;94027.94;4945319;28;20039;-91
2022/04/20 10:28:19;;;;;;;25.55;10.68;;;;;;;14.43;100.00;94029.66;4960455;28;20452;-90
2022/04/20 10:30:52;;;;;;;21.38;9.45;;;;;;;14.86;100.00;94023.13;4960525;28;20049;-91
2022/04/20 10:33:23;;;;;;;22.65;10.60;;;;;;;14.83;100.00;94034.25;4960866;28;20030;-90
2022/04/20 10:35:59;;;;;;;15.10;9.13;;;;;;;14.83;100.00;94029.00;4945713;28;20511;-91
2022/04/20 10:38:27;;;;;;;17.50;10.63;;;;;;;14.31;100.00;94029.41;4946789;28;20041;-92
2022/04/20 10:41:09;;;;;;;;;;;;;;;;;;;;;
2022/04/20 10:43:39;;;;;;;24.77;10.25;;;;;;;15.12;100.00;94022.47;4981784;28;20023;-92
2022/04/20 10:46:17;;;;;;;31.95;9.65;;;;;;;15.17;100.00;94027.63;4949282;28;20026;-92
2022/04/20 10:49:07;;;;;;;20.30;10.02;;;;;;;14.83;100.00;94021.88;4961434;29;20035;-89
2022/04/20 10:51:41;;;;;;;25.88;10.07;;;;;;;15.30;100.00;94025.19;4964088;28;20034;-89
2022/04/20 10:54:27;;;;;;;21.92;10.05;;;;;;;15.06;100.00;94021.03;4949089;28;20042;-92
2022/04/20 10:57:02;;;;;;;19.15;9.52;;;;;;;14.52;100.00;94016.53;4964343;28;20338;-90
2022/04/20 10:59:40;;;;;;;;;;;;;;;;;;;;;
2022/04/20 11:02:09;;;;;;;19.55;9.35;;;;;;;15.11;100.00;94024.34;4965580;28;20048;-90
2022/04/20 11:04:47;;;;;;;;;;;;;;;;;;;;;
2022/04/20 11:07:17;;;;;;;18.60;8.75;;;;;;;15.50;100.00;94024.63;4980328;28;20030;-89
2022/04/20 11:09:44;;;;;;;19.02;10.25;;;;;;;15.74;100.00;94027.94;4964789;28;20057;-92
2022/04/20 11:21:07;;;;;;;16.60;8.40;;;;;;;16.71;100.00;94010.25;5000595;28;20041;-89
2022/04/20 11:23:55;;;;;;;21.38;7.60;;;;;;;16.51;100.00;94012.47;4983839;28;20030;-91
2022/04/20 11:26:25;;;;;;;21.38;8.45;;;;;;;16.67;100.00;94017.25;4983189;28;20352;-92
2022/04/20 11:28:54;;;;;;;20.73;7.97;;;;;;;16.70;100.00;94023.75;4999261;28;20038;-93
2022/04/20 11:31:19;;;;;;;21.35;8.60;;;;;;;16.01;100.00;94023.50;4967167;28;20117;-91
2022/04/20 11:33:46;;;;;;;16.58;8.55;;;;;;;16.20;100.00;94013.38;4967311;28;20172;-92
2022/04/20 11:36:14;;;;;;;21.67;9.63;;;;;;;14.94;100.00;94005.78;4983131;28;20077;-92
2022/04/20 11:38:50;;;;;;;14.20;8.13;;;;;;;15.74;100.00;94012.88;4999058;28;20034;-92
2022/04/20 11:41:19;;;;;;;21.60;8.63;;;;;;;16.10;100.00;94019.00;4982973;28;20088;-94
2022/04/20 11:43:48;;;;;;;15.13;8.52;;;;;;;15.51;100.00;94025.41;4983014;28;20103;-94
2022/04/20 11:46:14;;;;;;;14.95;9.00;;;;;;;14.96;100.00;94028.13;4967069;28;20450;-90
2022/04/20 11:48:50;;;;;;;22.17;9.88;;;;;;;14.32;100.00;94023.06;4966888;28;20336;-90
2022/04/20 11:51:21;;;;;;;21.45;9.65;;;;;;;14.91;100.00;94022.22;4967225;28;20061;-89
2022/04/20 11:53:49;;;;;;;15.20;8.98;;;;;;;15.72;100.00;94027.47;4983166;28;20034;-89
2022/04/20 11:56:15;;;;;;;26.85;9.85;;;;;;;14.84;100.00;94022.63;4983437;28;20030;-89
2022/04/20 11:58:57;;;;;;;;;;;;;;;;;;;;;
2022/04/20 12:01:25;;;;;;;20.85;9.43;;;;;;;14.80;100.00;94032.25;4999916;28;20022;-91
2022/04/20 12:03:51;;;;;;;19.73;9.43;;;;;;;14.39;100.00;94033.97;4982668;28;20037;-90
2022/04/20 12:06:18;;;;;;;19.50;8.73;;;;;;;14.34;100.00;94023.53;4982353;28;20506;-93